Time;durP1;ratioP1;P1;durP2;ratioP2;P2;SDS_P1;SDS_P2;PMS_P1;PMS_P2;Temp;Humidity;BMP_temperature;BMP_pressure;BME280_temperature;BME280_humidity;BME280_pressure;Samples;Min_cycle;Max_cycle;Signal;HPM_P1;HPM_P2
2022/04/07 00:01:39;;;;;;;24.97;17.03;;;;;;;10.20;70.67;97233.88;2269378;78;20971;-84
2022/04/07 00:04:41;;;;;;;31.33;16.43;;;;;;;10.20;70.72;97230.83;2269143;78;20987;-82
2022/04/07 00:07:42;;;;;;;23.00;15.47;;;;;;;10.21;70.64;97226.04;2269474;78;20903;-82
2022/04/07 00:10:42;;;;;;;24.20;15.47;;;;;;;10.23;70.59;97218.64;2269683;78;20938;-82
2022/04/07 00:13:43;;;;;;;20.57;15.57;;;;;;;10.25;70.58;97218.18;2269792;78;20954;-82
2022/04/07 00:16:43;;;;;;;19.30;13.57;;;;;;;10.25;70.52;97211.66;2269485;78;20950;-82
2022/04/07 00:19:44;;;;;;;20.23;12.50;;;;;;;10.25;70.46;97208.61;2257758;77;21003;-83
2022/04/07 00:22:45;;;;;;;19.77;11.73;;;;;;;10.28;70.41;97209.02;2255349;79;20904;-81
2022/04/07 00:25:45;;;;;;;16.97;12.07;;;;;;;10.28;70.30;97194.67;2255440;79;20942;-82
2022/04/07 00:28:46;;;;;;;20.90;12.40;;;;;;;10.28;70.25;97188.15;2255337;79;20892;-81
2022/04/07 00:31:53;;;;;;;18.87;12.53;;;;;;;10.28;70.21;97189.45;2255327;79;21295;-82
2022/04/07 00:34:54;;;;;;;33.20;21.23;;;;;;;10.28;70.16;97189.45;2253827;79;21034;-81
2022/04/07 00:37:51;;;;;;;19.43;12.50;;;;;;;10.26;70.14;97178.18;2254261;79;21004;-82
2022/04/07 00:40:51;;;;;;;20.70;12.67;;;;;;;10.25;70.08;97179.06;2254870;79;20946;-84
2022/04/07 00:43:52;;;;;;;27.97;12.87;;;;;;;10.27;70.14;97182.52;2254295;79;20979;-81
2022/04/07 00:46:52;;;;;;;22.53;13.00;;;;;;;10.27;70.13;97174.69;2254079;79;20967;-81
2022/04/07 00:49:53;;;;;;;25.60;12.40;;;;;;;10.28;70.10;97169.89;2253916;79;20970;-81
2022/04/07 00:52:53;;;;;;;20.00;12.97;;;;;;;10.29;70.01;97173.78;2254420;79;20982;-82
2022/04/07 00:55:59;;;;;;;20.27;11.27;;;;;;;10.29;69.98;97165.97;2254685;79;21282;-83
2022/04/07 00:58:56;;;;;;;22.17;13.27;;;;;;;10.26;69.90;97158.63;2254303;79;20970;-82
2022/04/07 01:01:57;;;;;;;18.13;12.63;;;;;;;10.24;69.89;97155.17;2254840;79;20935;-82
2022/04/07 01:04:57;;;;;;;22.13;13.13;;;;;;;10.21;69.94;97157.38;2255074;79;20959;-83
2022/04/07 01:07:58;;;;;;;140.50;17.90;;;;;;;10.17;69.94;97156.53;2254921;79;20919;-83
2022/04/07 01:10:59;;;;;;;42.90;14.53;;;;;;;10.15;70.04;97154.83;2255217;79;20911;-83
2022/04/07 01:13:59;;;;;;;42.57;13.60;;;;;;;10.13;70.03;97153.55;2254940;79;21006;-79
2022/04/07 01:17:00;;;;;;;21.17;12.47;;;;;;;10.11;70.14;97146.18;2255155;79;20930;-82
2022/04/07 01:20:01;;;;;;;19.63;12.00;;;;;;;10.10;70.18;97152.72;2254842;78;21022;-80
2022/04/07 01:23:01;;;;;;;22.63;12.70;;;;;;;10.07;70.19;97147.55;2255338;79;20962;-81
2022/04/07 01:26:02;;;;;;;18.27;12.00;;;;;;;10.05;70.17;97157.99;2255430;78;20915;-83
2022/04/07 01:29:02;;;;;;;22.40;13.57;;;;;;;10.04;70.20;97156.27;2255785;78;20880;-83
2022/04/07 01:32:03;;;;;;;25.87;12.43;;;;;;;10.06;70.27;97163.63;2255619;78;20982;-82
2022/04/07 01:35:04;;;;;;;28.53;12.63;;;;;;;10.20;72.45;97155.66;2255064;79;20908;-82
2022/04/07 01:38:04;;;;;;;24.03;12.50;;;;;;;10.53;70.02;97152.60;2255360;78;20947;-82
2022/04/07 01:41:04;;;;;;;17.33;12.83;;;;;;;10.46;69.54;97154.02;2255478;78;20919;-78
2022/04/07 01:44:05;;;;;;;107.07;19.30;;;;;;;10.38;69.48;97149.32;2255192;78;20934;-81
2022/04/07 01:47:05;;;;;;;86.37;15.50;;;;;;;10.33;69.47;97153.74;2255191;78;21045;-83
2022/04/07 01:50:06;;;;;;;24.43;13.27;;;;;;;10.28;69.45;97154.25;2255411;78;21346;-83
2022/04/07 01:53:06;;;;;;;17.60;12.17;;;;;;;10.23;69.52;97156.06;2254904;78;20959;-80
2022/04/07 01:56:07;;;;;;;21.50;12.00;;;;;;;10.18;69.50;97149.56;2255478;79;20935;-82
2022/04/07 01:59:08;;;;;;;18.63;12.47;;;;;;;10.13;69.54;97153.55;2255590;78;20955;-81
2022/04/07 02:02:08;;;;;;;25.00;12.17;;;;;;;10.12;69.54;97149.21;2255246;79;21389;-85
2022/04/07 02:05:11;;;;;;;17.90;11.57;;;;;;;10.09;69.52;97158.37;2255115;78;20989;-84
2022/04/07 02:08:11;;;;;;;20.37;12.40;;;;;;;10.08;69.42;97154.05;2255695;79;21338;-83
2022/04/07 02:11:12;;;;;;;24.53;12.93;;;;;;;10.07;69.45;97156.67;2255284;78;20974;-82
2022/04/07 02:14:12;;;;;;;24.13;12.70;;;;;;;10.06;69.47;97154.50;2255574;78;21369;-82
2022/04/07 02:17:13;;;;;;;25.50;12.73;;;;;;;10.07;69.34;97154.06;2255582;79;20934;-82
2022/04/07 02:20:13;;;;;;;22.33;12.17;;;;;;;10.02;69.36;97145.44;2254954;78;21375;-82
2022/04/07 02:23:14;;;;;;;19.40;11.53;;;;;;;10.03;69.35;97144.12;2255037;79;20935;-82
2022/04/07 02:26:15;;;;;;;18.13;11.90;;;;;;;10.00;69.32;97139.39;2255064;79;20951;-83
2022/04/07 02:29:16;;;;;;;22.23;12.80;;;;;;;9.95;69.34;97143.35;2255180;79;21038;-79
2022/04/07 02:32:16;;;;;;;19.97;12.70;;;;;;;9.93;69.42;97139.05;2255938;79;20923;-78
2022/04/07 02:35:17;;;;;;;32.30;12.90;;;;;;;9.91;69.57;97144.28;2255363;79;20930;-80
2022/04/07 02:38:17;;;;;;;22.00;13.23;;;;;;;9.90;69.75;97139.50;2254932;79;21367;-80
2022/04/07 02:41:18;;;;;;;21.77;13.60;;;;;;;9.92;69.73;97143.83;2254533;79;21424;-81
2022/04/07 02:44:18;;;;;;;29.07;12.83;;;;;;;9.93;69.76;97137.30;2255029;79;21347;-82
2022/04/07 02:47:19;;;;;;;20.33;12.70;;;;;;;9.95;69.70;97138.14;2255284;79;20978;-81
2022/04/07 02:50:19;;;;;;;18.23;12.07;;;;;;;9.95;69.67;97134.23;2254701;79;20986;-84
2022/04/07 02:53:20;;;;;;;21.10;13.47;;;;;;;9.93;69.69;97134.70;2255331;79;20931;-82
2022/04/07 02:56:20;;;;;;;19.07;12.90;;;;;;;9.93;69.73;97131.22;2254559;79;20959;-83
2022/04/07 02:59:21;;;;;;;21.70;12.87;;;;;;;9.92;69.69;97134.27;2254833;79;21364;-83
2022/04/07 03:02:21;;;;;;;19.43;12.70;;;;;;;9.93;69.68;97129.92;2254972;79;20939;-84
2022/04/07 03:05:22;;;;;;;22.00;12.63;;;;;;;9.93;69.66;97121.66;2255260;79;20985;-84
2022/04/07 03:08:22;;;;;;;18.60;12.93;;;;;;;9.93;69.62;97116.45;2255961;79;20954;-85
2022/04/07 03:11:23;;;;;;;18.87;12.37;;;;;;;9.93;69.55;97114.28;2255979;79;20998;-83
2022/04/07 03:14:27;;;;;;;24.57;12.77;;;;;;;9.92;69.59;97119.94;2255308;79;20962;-83
2022/04/07 03:17:26;;;;;;;29.90;13.53;;;;;;;9.90;69.62;97117.34;2254827;79;20979;-83
2022/04/07 03:20:26;;;;;;;20.90;13.13;;;;;;;9.87;69.65;97112.63;2254903;77;21047;-83
2022/04/07 03:23:27;;;;;;;22.13;12.93;;;;;;;9.77;69.67;97107.11;2255187;79;20994;-83
2022/04/07 03:26:27;;;;;;;19.77;13.33;;;;;;;9.69;69.77;97105.03;2255397;79;20947;-82
2022/04/07 03:29:30;;;;;;;26.37;13.77;;;;;;;9.60;69.93;97100.80;2255302;79;20927;-83
2022/04/07 03:32:30;;;;;;;36.83;14.07;;;;;;;9.50;70.11;97096.11;2255493;79;21004;-84
2022/04/07 03:35:31;;;;;;;28.07;13.50;;;;;;;9.38;70.05;97096.25;2255777;79;20947;-82
2022/04/07 03:38:33;;;;;;;23.27;13.27;;;;;;;9.25;70.20;97094.66;2255256;79;20947;-82
2022/04/07 03:41:33;;;;;;;152.63;21.90;;;;;;;9.14;70.44;97091.31;2254040;79;20916;-82
2022/04/07 03:44:34;;;;;;;59.03;16.37;;;;;;;8.99;70.51;97097.53;2254756;79;21317;-82
2022/04/07 03:47:35;;;;;;;27.97;13.50;;;;;;;8.85;70.77;97093.77;2255278;79;20983;-83
2022/04/07 03:50:36;;;;;;;26.90;13.53;;;;;;;8.74;70.84;97086.93;2254458;79;21374;-83
2022/04/07 03:53:36;;;;;;;128.47;16.53;;;;;;;8.55;71.15;97078.39;2254346;79;21001;-84
2022/04/07 03:56:37;;;;;;;31.10;13.57;;;;;;;8.45;71.55;97085.84;2253490;79;20954;-83
2022/04/07 03:59:39;;;;;;;48.13;14.00;;;;;;;8.36;71.68;97085.91;2253591;79;20943;-83
2022/04/07 04:02:39;;;;;;;72.77;16.30;;;;;;;8.26;71.84;97085.95;2253748;79;20983;-81
2022/04/07 04:05:40;;;;;;;31.83;15.87;;;;;;;8.13;71.93;97082.14;2253519;79;20915;-82
2022/04/07 04:08:40;;;;;;;29.23;14.80;;;;;;;7.99;72.21;97086.12;2254450;79;20903;-82
2022/04/07 04:11:41;;;;;;;27.93;15.23;;;;;;;7.88;72.57;97082.73;2254319;79;20990;-82
2022/04/07 04:14:42;;;;;;;26.50;17.83;;;;;;;7.79;72.85;97078.85;2254357;79;20997;-81
2022/04/07 04:17:43;;;;;;;49.20;17.27;;;;;;;7.76;73.34;97089.26;2254170;79;20982;-83
2022/04/07 04:20:43;;;;;;;31.87;14.90;;;;;;;7.70;73.72;97095.78;2254025;77;20999;-83
2022/04/07 04:23:44;;;;;;;25.63;14.17;;;;;;;7.65;73.71;97097.10;2254502;79;21019;-82
2022/04/07 04:26:44;;;;;;;19.20;13.23;;;;;;;7.55;73.68;97093.69;2254025;79;20989;-82
2022/04/07 04:29:45;;;;;;;19.10;12.47;;;;;;;7.41;73.88;97092.88;2254265;79;20939;-83
2022/04/07 04:32:45;;;;;;;21.77;12.23;;;;;;;7.28;74.27;97089.45;2253190;79;20915;-77
2022/04/07 04:35:46;;;;;;;17.37;13.17;;;;;;;7.17;74.36;97093.81;2253356;79;21335;-83
2022/04/07 04:38:46;;;;;;;19.77;12.03;;;;;;;7.09;74.52;97098.59;2252883;79;21342;-82
2022/04/07 04:41:47;;;;;;;43.10;11.50;;;;;;;7.01;74.75;97092.98;2253763;79;20930;-82
2022/04/07 04:44:48;;;;;;;20.27;10.77;;;;;;;6.94;74.92;97105.98;2252839;79;20955;-81
2022/04/07 04:47:52;;;;;;;13.40;9.37;;;;;;;6.90;75.26;97097.73;2253405;79;20975;-78
2022/04/07 04:50:51;;;;;;;16.23;9.80;;;;;;;6.90;75.66;97101.62;2253819;79;21106;-80
2022/04/07 04:53:53;;;;;;;16.47;9.93;;;;;;;6.97;75.83;97100.34;2254429;79;21005;-79
2022/04/07 04:56:53;;;;;;;17.37;10.30;;;;;;;7.04;75.74;97103.80;2254090;79;21318;-80
2022/04/07 04:59:54;;;;;;;21.30;11.53;;;;;;;7.10;75.72;97097.73;2254428;79;20990;-81
2022/04/07 05:02:54;;;;;;;19.63;10.03;;;;;;;7.18;75.79;97097.28;2254582;79;21267;-81
2022/04/07 05:05:55;;;;;;;22.50;10.83;;;;;;;7.21;75.73;97093.38;2254160;79;21358;-82
2022/04/07 05:08:55;;;;;;;20.13;9.77;;;;;;;7.18;75.83;97094.68;2254191;79;20954;-81
2022/04/07 05:11:56;;;;;;;61.60;12.07;;;;;;;7.16;75.90;97089.93;2253441;79;21377;-82
2022/04/07 05:14:56;;;;;;;18.67;11.30;;;;;;;7.15;75.93;97095.55;2251942;79;20923;-82
2022/04/07 05:17:57;;;;;;;52.33;23.40;;;;;;;7.18;76.01;97091.66;2252804;79;20974;-81
2022/04/07 05:20:57;;;;;;;21.57;11.13;;;;;;;7.22;75.97;97099.86;2253020;77;20973;-81
2022/04/07 05:23:58;;;;;;;20.33;10.73;;;;;;;7.30;76.12;97105.02;2252860;79;21317;-81
2022/04/07 05:27:01;;;;;;;17.10;10.40;;;;;;;7.41;76.15;97099.36;2253875;79;21255;-81
2022/04/07 05:30:01;;;;;;;21.37;12.87;;;;;;;7.55;76.27;97104.07;2252906;79;21034;-80
2022/04/07 05:33:02;;;;;;;19.40;13.40;;;;;;;7.70;76.50;97108.77;2253719;79;20950;-80
2022/04/07 05:36:02;;;;;;;17.07;13.27;;;;;;;7.91;76.57;97100.90;2253872;79;21042;-81
2022/04/07 05:39:03;;;;;;;22.83;13.23;;;;;;;8.05;76.12;97101.69;2253739;79;20919;-81
2022/04/07 05:42:03;;;;;;;25.93;16.30;;;;;;;8.15;75.98;97105.95;2254275;79;20935;-82
2022/04/07 05:45:04;;;;;;;30.77;16.13;;;;;;;8.28;75.82;97103.70;2254430;79;20949;-81
2022/04/07 05:48:04;;;;;;;21.87;14.57;;;;;;;8.66;81.53;97097.81;2254187;79;21699;-79
2022/04/07 05:51:05;;;;;;;33.30;17.43;;;;;;;9.28;75.67;97101.58;2252744;79;21719;-80
2022/04/07 05:54:05;;;;;;;42.63;18.13;;;;;;;9.40;74.45;97101.44;2252841;79;21005;-81
2022/04/07 05:57:06;;;;;;;41.27;19.33;;;;;;;9.65;74.89;97099.00;2252396;79;20918;-78
2022/04/07 06:00:07;;;;;;;30.92;19.00;;;;;;;10.68;73.69;97087.58;2252330;79;20930;-82
2022/04/07 06:03:07;;;;;;;22.48;16.65;;;;;;;10.85;71.75;97080.32;2251684;79;20958;-80
2022/04/07 06:06:08;;;;;;;25.20;17.27;;;;;;;11.05;70.15;97071.27;2252285;79;21021;-80
2022/04/07 06:09:08;;;;;;;24.47;16.55;;;;;;;11.15;69.34;97076.74;2252308;79;20962;-80
2022/04/07 06:15:13;;;;;;;27.35;15.38;;;;;;;11.48;68.59;97068.73;2202743;79;20868;-83
2022/04/07 06:18:14;;;;;;;24.72;15.53;;;;;;;12.07;70.46;97055.73;2252462;79;20911;-81
2022/04/07 06:21:14;;;;;;;28.30;15.40;;;;;;;13.06;66.19;97053.36;2252740;78;21430;-82
2022/04/07 06:24:15;;;;;;;24.80;14.70;;;;;;;13.12;65.05;97054.95;2252293;79;21350;-82
2022/04/07 06:27:16;;;;;;;24.75;13.20;;;;;;;13.25;62.92;97057.69;2252621;79;21295;-82
2022/04/07 06:30:16;;;;;;;19.87;14.40;;;;;;;13.25;62.75;97053.75;2252959;79;20942;-83
2022/04/07 06:33:17;;;;;;;26.75;15.50;;;;;;;13.22;62.84;97053.84;2252295;79;20934;-81
2022/04/07 06:36:18;;;;;;;27.42;14.00;;;;;;;13.34;62.71;97052.19;2252763;79;20915;-81
2022/04/07 06:39:18;;;;;;;18.77;12.80;;;;;;;13.34;62.71;97052.19;2252169;79;20919;-80
2022/04/07 06:42:19;;;;;;;21.60;12.88;;;;;;;13.42;61.67;97049.81;2251965;79;20954;-81
2022/04/07 06:45:19;;;;;;;18.07;12.68;;;;;;;13.47;61.21;97045.30;2252474;79;20939;-84
2022/04/07 06:48:20;;;;;;;22.22;11.75;;;;;;;13.48;61.36;97048.33;2253057;79;20919;-80
2022/04/07 06:51:20;;;;;;;19.32;12.65;;;;;;;13.63;59.63;97040.89;2252394;79;21765;-81
2022/04/07 06:54:21;;;;;;;18.32;10.63;;;;;;;13.62;60.10;97043.55;2252965;79;20927;-81
2022/04/07 06:57:24;;;;;;;16.95;11.18;;;;;;;13.67;60.55;97043.83;2253460;79;20958;-80
2022/04/07 07:00:25;;;;;;;14.97;10.47;;;;;;;13.68;60.43;97039.44;2252969;79;20919;-82
2022/04/07 07:03:27;;;;;;;40.00;10.85;;;;;;;13.65;60.36;97038.22;2252291;79;21344;-82
2022/04/07 07:06:28;;;;;;;16.85;10.13;;;;;;;13.66;60.05;97033.38;2253032;79;20923;-81
2022/04/07 07:09:28;;;;;;;17.77;10.70;;;;;;;13.75;59.67;97036.19;2252699;79;21659;-81
2022/04/07 07:12:29;;;;;;;13.35;9.70;;;;;;;13.97;59.49;97032.91;2252899;79;20986;-82
2022/04/07 07:15:29;;;;;;;18.42;10.10;;;;;;;14.07;58.70;97035.25;2252426;79;21309;-81
2022/04/07 07:18:30;;;;;;;21.45;10.60;;;;;;;14.09;58.86;97038.69;2252195;79;20981;-80
2022/04/07 07:21:30;;;;;;;19.60;10.00;;;;;;;13.99;58.76;97044.21;2252096;77;20995;-83
2022/04/07 07:24:31;;;;;;;14.75;10.20;;;;;;;13.91;58.97;97042.27;2253030;78;20955;-80
2022/04/07 07:27:31;;;;;;;14.18;9.65;;;;;;;13.80;58.87;97035.59;2252784;78;21055;-81
2022/04/07 07:30:32;;;;;;;16.50;10.95;;;;;;;13.76;58.84;97037.91;2252543;78;20939;-80
2022/04/07 07:33:32;;;;;;;20.70;9.23;;;;;;;13.85;59.10;97037.63;2253116;78;20923;-80
2022/04/07 07:36:35;;;;;;;33.92;10.85;;;;;;;14.20;58.57;97031.34;2253124;79;21685;-81
2022/04/07 07:39:35;;;;;;;16.52;10.05;;;;;;;14.45;57.16;97034.94;2253527;78;20934;-81
2022/04/07 07:42:40;;;;;;;16.42;9.80;;;;;;;14.43;57.23;97032.81;2252781;78;21318;-81
2022/04/07 07:45:38;;;;;;;16.45;8.70;;;;;;;14.50;56.46;97028.22;2252854;79;20975;-81
2022/04/07 07:48:38;;;;;;;16.45;8.50;;;;;;;14.63;57.26;97021.66;2252711;79;20974;-83
2022/04/07 07:51:39;;;;;;;12.53;7.70;;;;;;;14.66;56.57;97027.67;2253074;79;20994;-81
2022/04/07 07:54:39;;;;;;;12.50;7.37;;;;;;;14.70;55.83;97028.87;2253451;79;20943;-82
2022/04/07 07:57:40;;;;;;;10.00;7.62;;;;;;;14.92;54.72;97028.13;2252579;79;21378;-81
2022/04/07 08:00:41;;;;;;;10.32;6.47;;;;;;;15.07;55.11;97031.14;2252967;79;20918;-81
2022/04/07 08:03:41;;;;;;;8.98;6.87;;;;;;;15.25;54.57;97024.78;2253831;78;21382;-82
2022/04/07 08:06:42;;;;;;;10.25;6.50;;;;;;;15.43;53.25;97028.98;2254433;78;20978;-82
2022/04/07 08:09:42;;;;;;;11.88;6.28;;;;;;;15.56;53.85;97026.30;2252768;78;20943;-80
2022/04/07 08:12:43;;;;;;;10.75;6.45;;;;;;;15.69;52.17;97022.37;2252362;79;20939;-80
2022/04/07 08:15:43;;;;;;;8.83;6.40;;;;;;;15.70;52.76;97021.45;2252961;78;20934;-81
2022/04/07 08:18:44;;;;;;;14.80;6.53;;;;;;;15.70;52.76;97021.45;2253200;79;21786;-80
2022/04/07 08:21:44;;;;;;;8.58;5.80;;;;;;;15.69;51.75;97008.36;2242237;78;20986;-81
2022/04/07 08:24:45;;;;;;;9.35;5.72;;;;;;;15.63;51.54;97006.81;2238454;79;20951;-82
2022/04/07 08:27:45;;;;;;;13.62;6.60;;;;;;;15.52;51.65;97008.92;2238912;79;20969;-82
2022/04/07 08:30:46;;;;;;;13.22;6.62;;;;;;;15.55;52.59;97002.23;2238456;79;20951;-81
2022/04/07 08:33:46;;;;;;;13.15;6.60;;;;;;;15.54;52.33;97009.72;2239071;79;21299;-81
2022/04/07 08:36:47;;;;;;;11.15;6.60;;;;;;;15.61;52.02;97013.91;2238698;79;20979;-82
2022/04/07 08:39:49;;;;;;;10.30;6.72;;;;;;;15.79;50.91;97004.01;2238728;79;20923;-81
2022/04/07 08:42:50;;;;;;;11.90;6.50;;;;;;;15.96;51.94;96994.61;2239356;79;20943;-82
2022/04/07 08:45:50;;;;;;;14.25;7.22;;;;;;;16.21;51.32;96993.58;2238826;79;21007;-80
2022/04/07 08:48:51;;;;;;;17.35;6.87;;;;;;;16.37;50.68;96996.45;2238639;79;20932;-80
2022/04/07 08:51:52;;;;;;;10.53;5.80;;;;;;;16.56;50.05;96982.96;2238554;79;20956;-81
2022/04/07 08:54:52;;;;;;;10.60;6.08;;;;;;;16.69;48.86;96978.53;2238083;79;20939;-80
2022/04/07 08:57:52;;;;;;;20.32;6.17;;;;;;;16.68;48.35;96976.81;2238852;79;20914;-81
2022/04/07 09:00:53;;;;;;;6.07;4.57;;;;;;;16.77;48.50;96976.43;2238856;79;20955;-81
2022/04/07 09:03:53;;;;;;;13.83;5.58;;;;;;;16.88;47.70;96961.88;2239212;79;21311;-80
2022/04/07 09:06:54;;;;;;;11.12;4.08;;;;;;;17.06;48.04;96950.99;2240251;79;21679;-84
2022/04/07 09:09:54;;;;;;;7.67;3.37;;;;;;;17.26;46.77;96953.20;2239678;79;21575;-82
2022/04/07 09:12:55;;;;;;;7.75;3.30;;;;;;;17.40;45.89;96954.33;2240055;79;20990;-82
2022/04/07 09:15:56;;;;;;;8.63;3.00;;;;;;;17.59;45.14;96950.39;2239248;79;20985;-82
2022/04/07 09:18:56;;;;;;;10.05;2.30;;;;;;;17.85;45.33;96943.08;2239187;79;20935;-82
2022/04/07 09:21:57;;;;;;;2.10;1.90;;;;;;;17.93;43.54;96939.14;2248314;79;20983;-83
2022/04/07 09:24:57;;;;;;;7.35;2.15;;;;;;;18.10;43.17;96931.73;2252593;79;20974;-81
2022/04/07 09:28:00;;;;;;;18.73;3.77;;;;;;;18.45;42.38;96929.56;2252468;79;21404;-83
2022/04/07 09:31:00;;;;;;;8.53;2.85;;;;;;;18.71;40.35;96921.67;2252107;79;20907;-85
2022/04/07 09:34:02;;;;;;;2.70;1.98;;;;;;;18.78;40.46;96919.58;2253070;79;20915;-83
2022/04/07 09:37:02;;;;;;;82.55;6.70;;;;;;;18.92;41.01;96918.86;2253270;79;21064;-83
2022/04/07 09:40:02;;;;;;;3.20;2.67;;;;;;;19.04;41.08;96912.47;2251886;79;20951;-82
2022/04/07 09:43:03;;;;;;;5.87;2.60;;;;;;;19.08;39.94;96908.76;2252496;79;21339;-84
2022/04/07 09:46:04;;;;;;;33.80;3.00;;;;;;;19.28;40.33;96909.48;2252704;79;21672;-82
2022/04/07 09:49:04;;;;;;;3.72;2.40;;;;;;;19.54;39.48;96910.75;2251508;79;20927;-82
2022/04/07 09:52:05;;;;;;;8.60;2.55;;;;;;;19.76;39.80;96896.73;2251959;79;20962;-81
2022/04/07 09:55:08;;;;;;;4.22;2.52;;;;;;;19.99;38.60;96886.20;2252422;79;20983;-83
2022/04/07 09:58:08;;;;;;;21.68;3.77;;;;;;;20.10;39.49;96890.88;2252255;79;20962;-79
2022/04/07 10:01:09;;;;;;;3.72;2.90;;;;;;;20.20;37.56;96890.73;2251768;79;21400;-82
2022/04/07 10:04:09;;;;;;;17.62;3.20;;;;;;;20.13;37.38;96878.79;2252318;79;21362;-80
2022/04/07 10:07:11;;;;;;;11.20;3.30;;;;;;;20.29;39.18;96874.31;2252232;79;20895;-81
2022/04/07 10:10:12;;;;;;;14.47;3.35;;;;;;;20.46;37.35;96864.94;2252817;79;20951;-80
2022/04/07 10:13:12;;;;;;;14.43;3.20;;;;;;;20.46;37.94;96874.21;2252933;79;20974;-81
2022/04/07 10:16:13;;;;;;;6.58;2.47;;;;;;;20.26;37.50;96863.42;2252148;79;20931;-83
2022/04/07 10:19:13;;;;;;;7.33;2.90;;;;;;;20.18;36.90;96848.92;2252775;79;21342;-82
2022/04/07 10:22:14;;;;;;;4.45;2.15;;;;;;;20.22;38.81;96846.00;2252460;79;21010;-81
2022/04/07 10:25:14;;;;;;;6.50;1.70;;;;;;;20.46;36.96;96841.09;2252762;79;20965;-81
2022/04/07 10:28:15;;;;;;;11.57;2.50;;;;;;;20.25;37.78;96830.40;2253194;79;21056;-82
2022/04/07 10:31:15;;;;;;;4.55;1.90;;;;;;;20.30;34.77;96817.73;2252783;79;20962;-81
2022/04/07 10:34:16;;;;;;;2.37;1.70;;;;;;;19.48;36.75;96822.42;2252627;79;20958;-82
2022/04/07 10:37:16;;;;;;;2.45;1.52;;;;;;;19.48;36.75;96822.42;2253103;79;20955;-82
2022/04/07 10:40:17;;;;;;;2.02;1.35;;;;;;;19.28;37.63;96819.55;2252522;79;21373;-81
2022/04/07 10:43:18;;;;;;;2.70;1.60;;;;;;;19.19;37.98;96809.01;2252335;79;20982;-82
2022/04/07 10:46:19;;;;;;;6.35;2.00;;;;;;;19.32;38.28;96802.58;2253122;79;21014;-82
2022/04/07 10:49:20;;;;;;;3.52;2.15;;;;;;;19.15;38.33;96794.25;2252821;79;21349;-82
2022/04/07 10:52:21;;;;;;;3.95;2.08;;;;;;;19.20;38.35;96795.31;2252369;79;20966;-83
2022/04/07 10:55:23;;;;;;;9.63;2.77;;;;;;;19.23;37.37;96782.78;2251973;79;21045;-81
2022/04/07 10:58:24;;;;;;;5.10;2.60;;;;;;;19.40;38.30;96793.27;2252417;79;20991;-81
2022/04/07 11:01:25;;;;;;;8.13;2.40;;;;;;;19.90;38.02;96787.40;2252198;79;20927;-82
2022/04/07 11:04:25;;;;;;;14.40;2.33;;;;;;;20.13;37.13;96788.73;2252541;79;21681;-84
2022/04/07 11:07:26;;;;;;;4.95;2.08;;;;;;;20.23;36.05;96778.83;2253131;79;21318;-82
2022/04/07 11:10:26;;;;;;;2.60;1.80;;;;;;;20.30;35.99;96780.64;2252539;79;20955;-81
2022/04/07 11:13:27;;;;;;;6.80;2.30;;;;;;;20.27;36.65;96773.73;2252543;79;20957;-82
2022/04/07 11:16:30;;;;;;;5.83;2.20;;;;;;;20.22;36.43;96767.00;2251993;79;20927;-81
2022/04/07 11:19:30;;;;;;;9.40;2.08;;;;;;;20.09;36.68;96766.88;2252834;79;20975;-82
2022/04/07 11:22:30;;;;;;;12.73;2.17;;;;;;;19.88;37.34;96760.16;2253415;78;21018;-80
2022/04/07 11:25:31;;;;;;;83.92;5.00;;;;;;;19.93;37.22;96764.72;2253621;79;21335;-84
2022/04/07 11:28:33;;;;;;;11.37;2.10;;;;;;;20.21;36.26;96759.53;2253306;78;21007;-81
2022/04/07 11:31:33;;;;;;;3.22;1.42;;;;;;;20.26;35.79;96769.84;2252381;78;21034;-85
2022/04/07 11:34:34;;;;;;;4.05;1.35;;;;;;;19.83;36.66;96768.84;2253326;79;20931;-83
2022/04/07 11:37:34;;;;;;;1.67;1.47;;;;;;;19.62;37.14;96763.84;2253580;79;20883;-81
2022/04/07 11:40:35;;;;;;;8.83;2.35;;;;;;;19.40;36.71;96760.67;2253456;79;21606;-82
2022/04/07 11:43:35;;;;;;;32.65;3.17;;;;;;;19.33;37.79;96760.64;2252087;79;20900;-81
2022/04/07 11:46:36;;;;;;;16.12;2.47;;;;;;;19.28;37.59;96759.57;2252357;79;20920;-81
2022/04/07 11:49:36;;;;;;;10.23;2.17;;;;;;;19.12;37.68;96756.54;2252799;78;21389;-79
2022/04/07 11:52:37;;;;;;;28.67;2.52;;;;;;;19.04;38.14;96752.50;2252287;79;20974;-82
2022/04/07 11:55:37;;;;;;;2.10;1.50;;;;;;;19.48;37.92;96734.64;2253009;79;21352;-81
2022/04/07 11:58:37;;;;;;;10.35;1.80;;;;;;;19.81;37.25;96727.05;2253333;79;21465;-83
2022/04/07 12:01:38;;;;;;;24.30;2.10;;;;;;;19.97;36.06;96725.23;2221600;79;20966;-81
2022/04/07 12:04:40;;;;;;;35.10;3.25;;;;;;;20.03;35.52;96722.22;2251914;78;20930;-82
2022/04/07 12:07:41;;;;;;;6.25;1.87;;;;;;;19.64;36.08;96724.91;2252470;79;21469;-83
2022/04/07 12:10:41;;;;;;;15.58;2.52;;;;;;;19.36;37.17;96726.92;2252694;78;20934;-83
2022/04/07 12:13:42;;;;;;;2.42;1.60;;;;;;;19.61;36.36;96692.00;2252869;78;20950;-82
2022/04/07 12:16:42;;;;;;;4.42;1.90;;;;;;;19.68;36.80;96718.49;2253501;79;21353;-83
2022/04/07 12:19:43;;;;;;;8.55;1.85;;;;;;;19.67;36.61;96717.27;2253045;79;20904;-83
2022/04/07 12:22:43;;;;;;;7.20;1.92;;;;;;;19.82;37.32;96731.39;2251772;78;21719;-82
2022/04/07 12:25:44;;;;;;;2.37;2.17;;;;;;;19.70;36.78;96716.61;2252099;79;20939;-83
2022/04/07 12:28:44;;;;;;;10.60;2.00;;;;;;;19.28;37.51;96716.40;2252341;79;20919;-84
2022/04/07 12:31:45;;;;;;;2.70;1.90;;;;;;;19.00;37.40;96706.02;2252885;79;20962;-82
2022/04/07 12:34:45;;;;;;;4.65;1.72;;;;;;;19.17;37.74;96705.57;2252383;79;20896;-82
2022/04/07 12:37:46;;;;;;;3.10;2.10;;;;;;;19.01;38.79;96703.75;2252493;79;21310;-82
2022/04/07 12:40:46;;;;;;;4.87;2.00;;;;;;;18.80;37.96;96694.36;2252875;79;21353;-84
2022/04/07 12:43:47;;;;;;;3.92;2.17;;;;;;;18.53;38.53;96698.48;2229835;79;21349;-83
2022/04/07 12:46:47;;;;;;;2.40;2.20;;;;;;;18.41;38.90;96698.67;2251783;79;20923;-83
2022/04/07 12:49:48;;;;;;;3.12;2.42;;;;;;;18.43;39.46;96691.52;2250687;79;20927;-78
2022/04/07 12:52:48;;;;;;;7.17;1.85;;;;;;;18.37;39.05;96683.45;2250578;79;20963;-82
2022/04/07 12:55:49;;;;;;;3.33;1.80;;;;;;;18.45;38.93;96680.40;2251798;79;20927;-81
2022/04/07 12:58:49;;;;;;;14.50;2.70;;;;;;;18.56;38.79;96670.57;2251238;79;20919;-80
2022/04/07 13:01:50;;;;;;;4.37;2.92;;;;;;;18.54;38.66;96661.88;2253172;79;20927;-82
2022/04/07 13:04:50;;;;;;;8.28;2.40;;;;;;;18.76;39.37;96661.97;2253114;79;20969;-82
2022/04/07 13:07:51;;;;;;;2.52;1.90;;;;;;;19.10;39.54;96645.56;2253360;79;21022;-82
2022/04/07 13:10:52;;;;;;;2.17;1.98;;;;;;;18.79;39.23;96642.45;2253854;79;20939;-82
2022/04/07 13:13:52;;;;;;;6.00;2.30;;;;;;;18.34;40.11;96634.75;2253886;79;21349;-82
2022/04/07 13:16:53;;;;;;;2.80;2.50;;;;;;;18.50;39.65;96624.67;2253927;79;20939;-81
2022/04/07 13:19:53;;;;;;;7.50;2.30;;;;;;;18.64;39.83;96626.13;2253001;79;20919;-81
2022/04/07 13:22:54;;;;;;;13.20;2.90;;;;;;;18.62;39.55;96597.61;2253095;79;20987;-82
2022/04/07 13:25:54;;;;;;;14.73;2.47;;;;;;;18.58;39.22;96594.72;2253253;79;20959;-82
2022/04/07 13:28:55;;;;;;;5.65;1.85;;;;;;;18.43;38.42;96592.46;2252876;79;20970;-81
2022/04/07 13:31:56;;;;;;;1.90;1.70;;;;;;;18.27;39.25;96581.89;2252982;79;21014;-83
2022/04/07 13:34:57;;;;;;;11.97;2.42;;;;;;;18.38;39.77;96570.73;2253376;79;20946;-83
2022/04/07 13:38:02;;;;;;;8.60;2.25;;;;;;;18.64;41.04;96566.67;2253542;79;21358;-83
2022/04/07 13:41:04;;;;;;;13.95;2.62;;;;;;;18.95;37.81;96552.09;2253910;79;20978;-82
2022/04/07 13:44:04;;;;;;;12.40;2.27;;;;;;;19.00;37.89;96555.31;2252774;79;21326;-82
2022/04/07 13:47:05;;;;;;;4.55;1.80;;;;;;;19.45;37.23;96547.44;2252724;79;20970;-82
2022/04/07 13:50:06;;;;;;;5.85;1.95;;;;;;;19.45;37.23;96547.44;2253797;79;21006;-82
2022/04/07 13:53:07;;;;;;;2.42;1.92;;;;;;;19.49;36.37;96548.48;2254012;79;21009;-82
2022/04/07 13:56:08;;;;;;;2.83;1.70;;;;;;;19.45;36.86;96545.64;2253994;79;20982;-82
2022/04/07 13:59:09;;;;;;;2.35;2.15;;;;;;;19.25;37.26;96536.25;2254548;79;20907;-82
2022/04/07 14:02:10;;;;;;;3.87;1.72;;;;;;;19.18;37.81;96510.26;2231199;79;20903;-83